Time;durP1;ratioP1;P1;durP2;ratioP2;P2;SDS_P1;SDS_P2;PMS_P1;PMS_P2;Temp;Humidity;BMP_temperature;BMP_pressure;BME280_temperature;BME280_humidity;BME280_pressure;Samples;Min_cycle;Max_cycle;Signal;HPM_P1;HPM_P2
2022/06/19 00:00:19;;;;;;;11.70;4.40;;;;;;;;;;5073219;28;20517;-58
2022/06/19 00:02:46;;;;;;;9.20;4.40;;;;;;;;;;5071976;28;20081;-58
2022/06/19 00:05:14;;;;;;;5.93;4.10;;;;;;;;;;5070017;28;20033;-59
2022/06/19 00:07:40;;;;;;;8.75;4.65;;;;;;;;;;5068675;28;20024;-58
2022/06/19 00:10:06;;;;;;;7.90;4.20;;;;;;;;;;5069087;28;20025;-58
2022/06/19 00:12:32;;;;;;;9.95;4.05;;;;;;;;;;5074132;28;20040;-57
2022/06/19 00:14:58;;;;;;;9.57;4.55;;;;;;;;;;5069175;28;20032;-57
2022/06/19 00:17:24;;;;;;;10.68;3.63;;;;;;;;;;5075126;28;20530;-57
2022/06/19 00:19:50;;;;;;;6.72;3.95;;;;;;;;;;5060968;28;20033;-57
2022/06/19 00:22:16;;;;;;;9.80;4.28;;;;;;;;;;5074681;28;20028;-57
2022/06/19 00:24:42;;;;;;;11.25;4.25;;;;;;;;;;5075001;28;20032;-57
2022/06/19 00:27:08;;;;;;;8.18;3.85;;;;;;;;;;5071922;28;20012;-57
2022/06/19 00:29:34;;;;;;;7.40;3.97;;;;;;;;;;5073982;28;20017;-57
2022/06/19 00:32:04;;;;;;;8.45;3.83;;;;;;;;;;5074018;28;20027;-57
2022/06/19 00:34:31;;;;;;;11.90;4.28;;;;;;;;;;5074594;28;20024;-56
2022/06/19 00:36:58;;;;;;;9.35;4.25;;;;;;;;;;5073142;28;20035;-58
2022/06/19 00:39:26;;;;;;;10.23;4.03;;;;;;;;;;5066867;28;20155;-58
2022/06/19 00:41:52;;;;;;;10.63;3.97;;;;;;;;;;5075719;28;20483;-56
2022/06/19 00:44:18;;;;;;;10.05;4.18;;;;;;;;;;5073586;28;20032;-57
2022/06/19 00:46:53;;;;;;;7.75;4.45;;;;;;;;;;5056916;28;20028;-56
2022/06/19 00:49:24;;;;;;;6.30;3.97;;;;;;;;;;5068700;28;20020;-57
2022/06/19 00:51:56;;;;;;;8.73;4.40;;;;;;;;;;5069685;28;20555;-58
2022/06/19 00:54:22;;;;;;;6.45;4.13;;;;;;;;;;5070973;28;20052;-58
2022/06/19 00:56:49;;;;;;;5.88;4.18;;;;;;;;;;5073823;28;21627;-57
2022/06/19 00:59:16;;;;;;;9.65;4.40;;;;;;;;;;5078548;28;20029;-56
2022/06/19 01:01:43;;;;;;;7.38;4.00;;;;;;;;;;5075824;28;20032;-58
2022/06/19 01:04:16;;;;;;;8.40;3.92;;;;;;;;;;5072965;28;20039;-60
2022/06/19 01:06:42;;;;;;;9.15;4.22;;;;;;;;;;5073542;28;20539;-59
2022/06/19 01:09:09;;;;;;;8.70;4.38;;;;;;;;;;5081053;28;20099;-59
2022/06/19 01:11:36;;;;;;;9.35;3.88;;;;;;;;;;5073286;28;20047;-57
2022/06/19 01:14:02;;;;;;;9.30;4.03;;;;;;;;;;5074245;28;20025;-60
2022/06/19 01:16:29;;;;;;;10.48;4.22;;;;;;;;;;5068006;28;20031;-58
2022/06/19 01:18:55;;;;;;;8.93;4.13;;;;;;;;;;5072519;28;20027;-58
2022/06/19 01:21:21;;;;;;;11.02;4.07;;;;;;;;;;5073364;28;20119;-59
2022/06/19 01:24:04;;;;;;;11.23;4.43;;;;;;;;;;5072680;28;20029;-60
2022/06/19 01:26:33;;;;;;;10.93;4.45;;;;;;;;;;5074675;28;20428;-60
2022/06/19 01:28:59;;;;;;;7.07;3.83;;;;;;;;;;5072602;28;20123;-59
2022/06/19 01:31:37;;;;;;;5.50;3.88;;;;;;;;;;5075566;28;20025;-59
2022/06/19 01:36:54;;;;;;;7.15;3.75;;;;;;;;;;5071903;28;20047;-59
2022/06/19 01:39:20;;;;;;;7.57;3.80;;;;;;;;;;5075664;28;20132;-59
2022/06/19 01:41:46;;;;;;;7.80;4.20;;;;;;;;;;5067058;28;20507;-58
2022/06/19 01:44:12;;;;;;;7.93;3.50;;;;;;;;;;5079533;28;20025;-59
2022/06/19 01:46:38;;;;;;;9.95;4.10;;;;;;;;;;5077384;28;20115;-59
2022/06/19 01:49:04;;;;;;;7.72;4.13;;;;;;;;;;5084965;28;20028;-60
2022/06/19 01:51:31;;;;;;;7.25;4.70;;;;;;;;;;5078902;28;20024;-59
2022/06/19 01:54:00;;;;;;;10.30;4.63;;;;;;;;;;5077023;28;20560;-59
2022/06/19 01:56:26;;;;;;;7.22;3.92;;;;;;;;;;5077221;28;20052;-59
2022/06/19 01:58:54;;;;;;;10.45;4.00;;;;;;;;;;5071643;28;20055;-58
2022/06/19 02:01:20;;;;;;;8.57;4.18;;;;;;;;;;5070916;28;20025;-59
2022/06/19 02:03:51;;;;;;;7.55;4.07;;;;;;;;;;5072387;28;20052;-59
2022/06/19 02:06:19;;;;;;;6.28;3.78;;;;;;;;;;5070906;28;20028;-57
2022/06/19 02:08:45;;;;;;;8.75;4.18;;;;;;;;;;5073543;28;20385;-59
2022/06/19 02:11:11;;;;;;;6.53;3.80;;;;;;;;;;5079348;28;20115;-59
2022/06/19 02:13:39;;;;;;;14.82;4.30;;;;;;;;;;5068592;28;20039;-57
2022/06/19 02:16:07;;;;;;;8.63;4.72;;;;;;;;;;5074878;28;20037;-59
2022/06/19 02:18:35;;;;;;;11.13;3.80;;;;;;;;;;5070136;28;20048;-59
2022/06/19 02:21:01;;;;;;;5.20;4.10;;;;;;;;;;5073526;28;20044;-59
2022/06/19 02:23:32;;;;;;;9.80;4.43;;;;;;;;;;5072518;28;20388;-59
2022/06/19 02:25:58;;;;;;;12.38;4.22;;;;;;;;;;5067943;28;20033;-58
2022/06/19 02:28:24;;;;;;;6.85;4.47;;;;;;;;;;5063823;28;20103;-58
2022/06/19 02:30:50;;;;;;;6.32;3.55;;;;;;;;;;5074402;28;20395;-60
2022/06/19 02:33:17;;;;;;;7.50;4.20;;;;;;;;;;5068725;28;20021;-59
2022/06/19 02:35:43;;;;;;;7.07;3.78;;;;;;;;;;5070611;28;20029;-60
2022/06/19 02:38:12;;;;;;;5.60;3.85;;;;;;;;;;5071849;28;20036;-59
2022/06/19 02:40:56;;;;;;;7.72;3.95;;;;;;;;;;5074823;28;20043;-59
2022/06/19 02:43:22;;;;;;;;;;;;;;;;;;5069020;28;20484;-60
2022/06/19 02:45:48;;;;;;;10.65;4.07;;;;;;;;;;5071983;28;19970;-58
2022/06/19 02:48:28;;;;;;;14.10;4.32;;;;;;;;;;5054344;28;20028;-59
2022/06/19 02:50:55;;;;;;;5.85;4.13;;;;;;;;;;5073051;28;20063;-58
2022/06/19 02:53:21;;;;;;;8.57;3.90;;;;;;;;;;5071187;28;20448;-57
2022/06/19 02:55:47;;;;;;;6.72;3.75;;;;;;;;;;5067017;28;20105;-59
2022/06/19 02:58:14;;;;;;;10.15;4.10;;;;;;;;;;5070385;28;20484;-59
2022/06/19 03:00:40;;;;;;;7.45;3.80;;;;;;;;;;5068210;28;20032;-59
2022/06/19 03:03:07;;;;;;;8.52;4.25;;;;;;;;;;5073172;28;20409;-60
2022/06/19 03:05:34;;;;;;;10.10;4.00;;;;;;;;;;5078313;28;20024;-58
2022/06/19 03:08:00;;;;;;;7.55;3.90;;;;;;;;;;5067201;28;20024;-58
2022/06/19 03:10:27;;;;;;;8.02;4.40;;;;;;;;;;5069427;28;20456;-59
2022/06/19 03:12:53;;;;;;;9.15;4.10;;;;;;;;;;5068302;28;20403;-59
2022/06/19 03:15:19;;;;;;;6.82;4.38;;;;;;;;;;5079064;28;20062;-59
2022/06/19 03:17:44;;;;;;;4.63;3.67;;;;;;;;;;5068118;28;20108;-59
2022/06/19 03:20:13;;;;;;;13.10;4.88;;;;;;;;;;5075868;28;20480;-59
2022/06/19 03:22:39;;;;;;;8.35;4.75;;;;;;;;;;5074620;28;20028;-59
2022/06/19 03:25:06;;;;;;;11.65;4.57;;;;;;;;;;5069631;28;20032;-59
2022/06/19 03:27:32;;;;;;;11.95;4.20;;;;;;;;;;5067873;28;20033;-59
2022/06/19 03:29:58;;;;;;;8.35;4.85;;;;;;;;;;5073890;28;20450;-59
2022/06/19 03:32:24;;;;;;;7.40;4.97;;;;;;;;;;5079521;28;20032;-59
2022/06/19 03:34:50;;;;;;;9.75;4.90;;;;;;;;;;5070895;28;20484;-59
2022/06/19 03:37:16;;;;;;;10.80;5.25;;;;;;;;;;5063857;28;20511;-59
2022/06/19 03:39:42;;;;;;;9.73;4.38;;;;;;;;;;5076012;28;20025;-60
2022/06/19 03:42:08;;;;;;;8.05;5.00;;;;;;;;;;5068978;28;20064;-58
2022/06/19 03:44:34;;;;;;;11.82;5.13;;;;;;;;;;5074934;28;20030;-59
2022/06/19 03:47:00;;;;;;;9.98;4.68;;;;;;;;;;5082582;28;20107;-57
2022/06/19 03:49:27;;;;;;;7.05;4.47;;;;;;;;;;5069798;28;20020;-60
2022/06/19 03:51:53;;;;;;;9.15;4.93;;;;;;;;;;5067600;28;20451;-60
2022/06/19 03:54:19;;;;;;;7.70;5.10;;;;;;;;;;5071034;28;20031;-59
2022/06/19 03:56:45;;;;;;;11.73;4.50;;;;;;;;;;5071472;28;20042;-58
2022/06/19 03:59:12;;;;;;;8.73;5.28;;;;;;;;;;5069028;28;20060;-58
2022/06/19 04:01:42;;;;;;;13.20;5.10;;;;;;;;;;5073494;28;20365;-58
2022/06/19 04:04:08;;;;;;;8.60;4.60;;;;;;;;;;5073401;28;20059;-59
2022/06/19 04:06:36;;;;;;;8.70;4.78;;;;;;;;;;5068314;28;20050;-58
2022/06/19 04:09:04;;;;;;;10.25;5.90;;;;;;;;;;5061138;28;20032;-59
2022/06/19 04:11:30;;;;;;;9.02;5.22;;;;;;;;;;5077625;28;20438;-58
2022/06/19 04:13:56;;;;;;;8.73;5.40;;;;;;;;;;5067596;28;20054;-59
2022/06/19 04:16:23;;;;;;;10.10;5.75;;;;;;;;;;5072845;28;20137;-59
2022/06/19 04:18:50;;;;;;;7.07;5.05;;;;;;;;;;5051709;28;20024;-57
2022/06/19 04:21:17;;;;;;;8.65;4.82;;;;;;;;;;5070650;28;20034;-58
2022/06/19 04:23:43;;;;;;;17.70;5.55;;;;;;;;;;5068340;28;20036;-59
2022/06/19 04:26:10;;;;;;;10.93;5.95;;;;;;;;;;5072285;28;20115;-58
2022/06/19 04:28:36;;;;;;;7.88;4.97;;;;;;;;;;5076074;28;20028;-59
2022/06/19 04:31:02;;;;;;;11.10;5.72;;;;;;;;;;5072845;28;20793;-59
2022/06/19 04:33:28;;;;;;;9.65;5.57;;;;;;;;;;5069714;28;20028;-60
2022/06/19 04:35:54;;;;;;;11.38;6.25;;;;;;;;;;5068887;28;20078;-59
2022/06/19 04:38:20;;;;;;;16.23;6.32;;;;;;;;;;5073583;28;20059;-57
2022/06/19 04:40:46;;;;;;;7.68;5.18;;;;;;;;;;5083647;28;20036;-59
2022/06/19 04:43:13;;;;;;;8.20;5.32;;;;;;;;;;5070215;28;20028;-57
2022/06/19 04:45:39;;;;;;;11.90;5.38;;;;;;;;;;5078642;28;20036;-59
2022/06/19 04:48:05;;;;;;;8.75;5.25;;;;;;;;;;5069793;28;20040;-59
2022/06/19 04:50:31;;;;;;;13.52;6.03;;;;;;;;;;5066974;28;20029;-58
2022/06/19 04:52:57;;;;;;;12.30;5.55;;;;;;;;;;5068779;28;20165;-58
2022/06/19 04:55:23;;;;;;;13.27;5.53;;;;;;;;;;5062729;28;20052;-58
2022/06/19 04:57:49;;;;;;;11.73;6.43;;;;;;;;;;5056255;28;20365;-58
2022/06/19 05:00:17;;;;;;;12.43;6.07;;;;;;;;;;5070628;28;20037;-58
2022/06/19 05:02:43;;;;;;;7.82;5.65;;;;;;;;;;5068068;28;20110;-59
2022/06/19 05:05:14;;;;;;;9.10;6.00;;;;;;;;;;5069902;28;20032;-58
2022/06/19 05:07:40;;;;;;;9.15;5.72;;;;;;;;;;5071314;28;20021;-58
2022/06/19 05:10:07;;;;;;;15.50;6.43;;;;;;;;;;5071124;28;20028;-59
2022/06/19 05:12:33;;;;;;;10.63;5.82;;;;;;;;;;5072230;28;20559;-58
2022/06/19 05:14:59;;;;;;;12.98;5.20;;;;;;;;;;5073363;28;20123;-58
2022/06/19 05:17:25;;;;;;;10.80;6.07;;;;;;;;;;5073102;28;20484;-58
2022/06/19 05:19:51;;;;;;;11.65;5.57;;;;;;;;;;5068232;28;20440;-57
2022/06/19 05:22:16;;;;;;;12.77;6.10;;;;;;;;;;5078852;28;20047;-57
2022/06/19 05:24:42;;;;;;;11.98;6.68;;;;;;;;;;5080983;28;20512;-58
2022/06/19 05:27:09;;;;;;;13.23;5.45;;;;;;;;;;5072802;28;20078;-57
2022/06/19 05:29:36;;;;;;;15.93;6.55;;;;;;;;;;5073953;28;20023;-58
2022/06/19 05:32:04;;;;;;;13.65;5.82;;;;;;;;;;5079324;28;20394;-58
2022/06/19 05:34:30;;;;;;;11.98;6.30;;;;;;;;;;5075529;28;20028;-58
2022/06/19 05:36:56;;;;;;;12.75;6.35;;;;;;;;;;5075579;28;20468;-58
2022/06/19 05:39:22;;;;;;;16.08;6.45;;;;;;;;;;5077062;28;20085;-59
2022/06/19 05:41:48;;;;;;;14.88;6.20;;;;;;;;;;5090635;28;20032;-59
2022/06/19 05:44:14;;;;;;;14.80;6.13;;;;;;;;;;5069292;28;20047;-58
2022/06/19 05:46:41;;;;;;;16.77;6.05;;;;;;;;;;5076001;28;20120;-57
2022/06/19 05:49:07;;;;;;;9.07;5.55;;;;;;;;;;5067941;28;20119;-58
2022/06/19 05:51:33;;;;;;;14.23;6.38;;;;;;;;;;5066652;28;20092;-58
2022/06/19 05:53:59;;;;;;;16.15;6.38;;;;;;;;;;5075789;28;20039;-58
2022/06/19 05:56:26;;;;;;;17.98;6.28;;;;;;;;;;5077346;28;20037;-59
2022/06/19 05:58:52;;;;;;;16.55;6.00;;;;;;;;;;5069315;28;20113;-59
2022/06/19 06:01:19;;;;;;;15.82;5.43;;;;;;;;;;5080142;28;20029;-58
2022/06/19 06:03:45;;;;;;;13.52;5.55;;;;;;;;;;5069922;28;20033;-58
2022/06/19 06:06:15;;;;;;;13.27;4.90;;;;;;;;;;5074501;28;20046;-59
2022/06/19 06:08:41;;;;;;;14.05;5.18;;;;;;;;;;5074109;28;20036;-58
2022/06/19 06:11:07;;;;;;;16.50;4.97;;;;;;;;;;5082461;28;20111;-59
2022/06/19 06:13:34;;;;;;;14.10;5.68;;;;;;;;;;5073428;28;20024;-58
2022/06/19 06:16:00;;;;;;;16.33;5.10;;;;;;;;;;5069758;28;20035;-58
2022/06/19 06:18:26;;;;;;;15.95;5.25;;;;;;;;;;5074609;28;20024;-58
2022/06/19 06:20:59;;;;;;;14.02;5.35;;;;;;;;;;5070281;28;20036;-59
2022/06/19 06:23:26;;;;;;;19.98;5.30;;;;;;;;;;5069193;28;20039;-58
2022/06/19 06:26:22;;;;;;;16.40;5.13;;;;;;;;;;5081233;28;20032;-58
2022/06/19 06:28:48;;;;;;;19.52;6.03;;;;;;;;;;5046344;28;20059;-58
2022/06/19 06:31:15;;;;;;;16.05;4.80;;;;;;;;;;5069599;28;20039;-59
2022/06/19 06:33:41;;;;;;;11.70;4.93;;;;;;;;;;5069984;28;20126;-58
2022/06/19 06:36:07;;;;;;;14.00;5.43;;;;;;;;;;5067463;28;20047;-58
2022/06/19 06:38:34;;;;;;;16.20;5.22;;;;;;;;;;5070377;28;20052;-58
2022/06/19 06:40:59;;;;;;;13.27;4.72;;;;;;;;;;5072748;28;20032;-58
2022/06/19 06:43:26;;;;;;;12.63;4.65;;;;;;;;;;5066742;28;20089;-57
2022/06/19 06:45:52;;;;;;;11.77;4.80;;;;;;;;;;5070173;28;20024;-59
2022/06/19 06:48:19;;;;;;;16.90;5.35;;;;;;;;;;5066824;28;20030;-58
2022/06/19 06:50:45;;;;;;;17.55;4.65;;;;;;;;;;5070493;28;20067;-58
2022/06/19 06:53:11;;;;;;;20.88;5.05;;;;;;;;;;5070156;28;20468;-58
2022/06/19 06:55:38;;;;;;;16.40;4.43;;;;;;;;;;5071072;28;20131;-59
2022/06/19 06:58:05;;;;;;;13.45;5.00;;;;;;;;;;5070279;28;20068;-59
2022/06/19 07:00:31;;;;;;;16.92;5.72;;;;;;;;;;5069373;28;20727;-59
2022/06/19 07:02:58;;;;;;;12.45;4.80;;;;;;;;;;5069123;28;20124;-59
2022/06/19 07:05:24;;;;;;;14.68;4.97;;;;;;;;;;5072536;28;20488;-58
2022/06/19 07:07:50;;;;;;;17.83;4.85;;;;;;;;;;5070939;28;20035;-56
2022/06/19 07:10:16;;;;;;;10.65;4.10;;;;;;;;;;5067729;28;20028;-59
2022/06/19 07:12:42;;;;;;;16.55;5.25;;;;;;;;;;5071137;28;20595;-59
2022/06/19 07:15:10;;;;;;;19.25;4.38;;;;;;;;;;5074678;28;20028;-58
2022/06/19 07:17:36;;;;;;;11.68;3.85;;;;;;;;;;5074705;28;20028;-59
2022/06/19 07:20:02;;;;;;;12.38;4.28;;;;;;;;;;5069020;28;21779;-59
2022/06/19 07:22:28;;;;;;;17.73;4.30;;;;;;;;;;5069463;28;20409;-58
2022/06/19 07:24:54;;;;;;;12.82;4.10;;;;;;;;;;5067278;28;20495;-58
2022/06/19 07:27:20;;;;;;;23.15;4.85;;;;;;;;;;5059733;28;20021;-59
2022/06/19 07:29:46;;;;;;;11.75;3.83;;;;;;;;;;5065589;28;20028;-58
2022/06/19 07:32:13;;;;;;;16.13;4.05;;;;;;;;;;5075477;28;20043;-59
2022/06/19 07:34:41;;;;;;;11.20;4.38;;;;;;;;;;5073419;28;20488;-59
2022/06/19 07:37:07;;;;;;;15.95;3.83;;;;;;;;;;5067378;28;20060;-59
2022/06/19 07:39:34;;;;;;;16.80;3.83;;;;;;;;;;5069962;28;20030;-59
2022/06/19 07:42:00;;;;;;;10.65;3.88;;;;;;;;;;5068565;28;20557;-58
2022/06/19 07:44:26;;;;;;;8.35;4.03;;;;;;;;;;5060505;28;20032;-58
2022/06/19 07:52:21;;;;;;;16.50;5.35;;;;;;;;;;5071834;28;20087;-59
2022/06/19 07:54:47;;;;;;;16.33;5.63;;;;;;;;;;5075741;28;20044;-58
2022/06/19 07:57:13;;;;;;;20.85;6.30;;;;;;;;;;5070351;28;20099;-60
2022/06/19 07:59:39;;;;;;;22.55;6.28;;;;;;;;;;5068076;28;20400;-59
2022/06/19 08:02:05;;;;;;;16.30;5.60;;;;;;;;;;5068009;28;20035;-58
2022/06/19 08:04:31;;;;;;;16.17;4.65;;;;;;;;;;5065015;28;20035;-59
2022/06/19 08:06:58;;;;;;;20.85;5.20;;;;;;;;;;5074055;28;20028;-59
2022/06/19 08:09:24;;;;;;;11.55;3.58;;;;;;;;;;5064765;28;20479;-57
2022/06/19 08:11:50;;;;;;;19.25;4.43;;;;;;;;;;5069047;28;20040;-58
2022/06/19 08:14:16;;;;;;;26.92;5.00;;;;;;;;;;5065500;28;20502;-58
2022/06/19 08:16:41;;;;;;;13.10;3.97;;;;;;;;;;5067599;28;20029;-59
2022/06/19 08:19:07;;;;;;;14.93;3.72;;;;;;;;;;5070588;28;20400;-59
2022/06/19 08:21:33;;;;;;;12.82;3.10;;;;;;;;;;5068507;28;20068;-59
2022/06/19 08:23:59;;;;;;;13.07;2.90;;;;;;;;;;5069589;28;20028;-58
2022/06/19 08:26:25;;;;;;;10.95;2.80;;;;;;;;;;5069983;28;20123;-59
2022/06/19 08:28:59;;;;;;;10.38;2.53;;;;;;;;;;5068010;28;20143;-59
2022/06/19 08:31:25;;;;;;;8.80;2.30;;;;;;;;;;5065702;28;20029;-59
2022/06/19 08:33:51;;;;;;;13.77;3.28;;;;;;;;;;5063821;28;20506;-60
2022/06/19 08:36:17;;;;;;;9.45;2.13;;;;;;;;;;5075828;28;20107;-60
2022/06/19 08:38:45;;;;;;;16.90;2.50;;;;;;;;;;5073743;28;20089;-59
2022/06/19 08:41:29;;;;;;;15.25;2.47;;;;;;;;;;5073236;28;20067;-60
2022/06/19 08:44:08;;;;;;;16.52;2.90;;;;;;;;;;5062726;28;20056;-58
2022/06/19 08:46:40;;;;;;;10.88;3.00;;;;;;;;;;5068155;28;20031;-57
2022/06/19 08:49:29;;;;;;;12.10;2.45;;;;;;;;;;5074161;28;20025;-61
2022/06/19 08:51:55;;;;;;;14.68;3.10;;;;;;;;;;5068617;28;20097;-58
2022/06/19 08:54:34;;;;;;;12.95;2.72;;;;;;;;;;5069735;28;20021;-59
2022/06/19 08:57:19;;;;;;;17.48;2.95;;;;;;;;;;5073264;28;20040;-60
2022/06/19 08:59:51;;;;;;;14.10;2.80;;;;;;;;;;5074928;28;20037;-60
2022/06/19 09:02:37;;;;;;;13.10;2.63;;;;;;;;;;5074727;28;20112;-58
2022/06/19 09:08:03;;;;;;;14.98;2.83;;;;;;;;;;5063200;28;20039;-59
2022/06/19 09:10:49;;;;;;;14.77;3.40;;;;;;;;;;5078915;28;20021;-60
2022/06/19 09:13:34;;;;;;;19.25;3.30;;;;;;;;;;5074629;28;20048;-60
2022/06/19 09:16:06;;;;;;;16.42;2.88;;;;;;;;;;5070726;28;20036;-60
2022/06/19 09:18:38;;;;;;;16.30;3.20;;;;;;;;;;5066769;28;20488;-59
2022/06/19 09:21:20;;;;;;;15.55;2.75;;;;;;;;;;5067029;28;20032;-61
2022/06/19 09:24:05;;;;;;;14.30;3.65;;;;;;;;;;5067179;28;20028;-60
2022/06/19 09:26:34;;;;;;;18.73;3.10;;;;;;;;;;5070857;28;20107;-60
2022/06/19 09:29:09;;;;;;;17.63;2.92;;;;;;;;;;5071033;28;20716;-59
2022/06/19 09:31:43;;;;;;;13.70;2.67;;;;;;;;;;5070768;28;20029;-61
2022/06/19 09:34:12;;;;;;;21.75;3.53;;;;;;;;;;5075922;28;20055;-59
2022/06/19 09:36:40;;;;;;;14.32;2.40;;;;;;;;;;5066206;28;20042;-59
2022/06/19 09:39:19;;;;;;;16.90;2.95;;;;;;;;;;5071202;28;20414;-60
2022/06/19 09:41:48;;;;;;;15.20;2.85;;;;;;;;;;5064824;28;20031;-60
2022/06/19 09:44:19;;;;;;;14.35;3.47;;;;;;;;;;5071322;28;20032;-59
2022/06/19 09:46:51;;;;;;;15.75;2.53;;;;;;;;;;5072565;28;20056;-59
2022/06/19 09:49:23;;;;;;;17.92;2.85;;;;;;;;;;5060194;28;20031;-60
2022/06/19 09:51:58;;;;;;;19.55;2.97;;;;;;;;;;5072608;28;20043;-60
2022/06/19 09:54:29;;;;;;;21.83;2.85;;;;;;;;;;5071110;28;20488;-60
2022/06/19 09:57:09;;;;;;;12.27;2.70;;;;;;;;;;5071425;28;20032;-60
2022/06/19 09:59:55;;;;;;;18.42;3.08;;;;;;;;;;5072707;28;20036;-60
2022/06/19 10:02:41;;;;;;;16.33;2.92;;;;;;;;;;5049562;28;20079;-61
2022/06/19 10:05:28;;;;;;;14.45;2.92;;;;;;;;;;5071964;28;20436;-59
2022/06/19 10:07:56;;;;;;;22.20;4.03;;;;;;;;;;5061457;28;20918;-59
2022/06/19 10:10:42;;;;;;;17.48;2.92;;;;;;;;;;5070122;28;20090;-60
2022/06/19 10:13:17;;;;;;;16.23;3.45;;;;;;;;;;5065509;28;20059;-59
2022/06/19 10:15:44;;;;;;;16.40;3.13;;;;;;;;;;5058904;28;20507;-59
2022/06/19 10:18:13;;;;;;;21.23;2.80;;;;;;;;;;5068234;28;20036;-60
2022/06/19 10:20:58;;;;;;;18.52;3.00;;;;;;;;;;5069691;28;20055;-61
2022/06/19 10:23:39;;;;;;;13.75;2.63;;;;;;;;;;5071639;28;20510;-58
2022/06/19 10:26:18;;;;;;;22.10;2.95;;;;;;;;;;5072234;28;20029;-60
2022/06/19 10:28:56;;;;;;;10.60;2.78;;;;;;;;;;5076931;28;20058;-60
2022/06/19 10:31:33;;;;;;;13.15;2.83;;;;;;;;;;5062119;28;20020;-60
2022/06/19 10:34:03;;;;;;;19.30;2.67;;;;;;;;;;5073006;28;20433;-60
2022/06/19 10:36:33;;;;;;;15.00;2.38;;;;;;;;;;5066495;28;20393;-59
2022/06/19 10:39:07;;;;;;;10.43;2.58;;;;;;;;;;5062915;28;20365;-60
2022/06/19 10:44:48;;;;;;;10.07;2.70;;;;;;;;;;5072155;28;20122;-61
2022/06/19 10:47:37;;;;;;;20.60;3.42;;;;;;;;;;5022393;28;20694;-60
2022/06/19 10:50:23;;;;;;;8.57;2.58;;;;;;;;;;5053356;28;20033;-61
2022/06/19 10:53:12;;;;;;;10.98;2.88;;;;;;;;;;5069350;28;20564;-60
2022/06/19 10:55:44;;;;;;;14.55;3.53;;;;;;;;;;5033696;28;20520;-59
2022/06/19 10:58:21;;;;;;;15.70;2.72;;;;;;;;;;5071477;28;20036;-60
2022/06/19 11:00:51;;;;;;;15.00;2.72;;;;;;;;;;5076462;28;20111;-61
2022/06/19 11:06:10;;;;;;;19.17;2.75;;;;;;;;;;5071440;28;20131;-60
2022/06/19 11:08:37;;;;;;;17.83;2.83;;;;;;;;;;5068498;28;20024;-57
2022/06/19 11:11:05;;;;;;;14.75;2.78;;;;;;;;;;5086806;28;20150;-60
2022/06/19 11:14:00;;;;;;;15.02;3.30;;;;;;;;;;5071388;28;20029;-59
2022/06/19 11:16:27;;;;;;;16.35;3.33;;;;;;;;;;5057369;28;20488;-60
2022/06/19 11:18:54;;;;;;;11.60;3.47;;;;;;;;;;5075331;28;20108;-61
2022/06/19 11:21:23;;;;;;;21.52;3.47;;;;;;;;;;5068763;28;20031;-60
2022/06/19 11:23:49;;;;;;;14.02;2.80;;;;;;;;;;5067061;28;20500;-60
2022/06/19 11:26:22;;;;;;;22.10;3.00;;;;;;;;;;5074278;28;20035;-61
2022/06/19 11:29:02;;;;;;;11.52;3.20;;;;;;;;;;5070058;28;20103;-59
2022/06/19 11:31:30;;;;;;;18.15;2.65;;;;;;;;;;5070525;28;20147;-59
2022/06/19 11:37:26;;;;;;;12.93;3.13;;;;;;;;;;5004523;28;20034;-58
2022/06/19 11:39:55;;;;;;;14.80;2.80;;;;;;;;;;5008546;28;20034;-59
2022/06/19 11:42:35;;;;;;;13.25;3.72;;;;;;;;;;5039418;28;20045;-59
2022/06/19 11:45:04;;;;;;;15.07;3.35;;;;;;;;;;5067608;28;20028;-59
2022/06/19 11:47:37;;;;;;;15.05;3.70;;;;;;;;;;5066847;28;20025;-59
2022/06/19 11:50:23;;;;;;;13.57;3.70;;;;;;;;;;5070336;28;20082;-61
2022/06/19 11:52:52;;;;;;;9.43;2.95;;;;;;;;;;5073538;28;20044;-60
2022/06/19 11:55:24;;;;;;;14.63;3.78;;;;;;;;;;5070720;28;20044;-59
2022/06/19 11:57:51;;;;;;;10.50;2.95;;;;;;;;;;5071864;28;20039;-60
2022/06/19 12:00:26;;;;;;;13.13;2.70;;;;;;;;;;5070177;28;20024;-60
2022/06/19 12:02:57;;;;;;;16.08;2.88;;;;;;;;;;5070940;28;20476;-61
2022/06/19 12:05:31;;;;;;;15.15;3.42;;;;;;;;;;5071072;28;20568;-59
2022/06/19 12:08:09;;;;;;;12.65;3.20;;;;;;;;;;5070727;28;20020;-60
2022/06/19 12:10:37;;;;;;;11.07;2.50;;;;;;;;;;5070602;28;20472;-59
2022/06/19 12:13:05;;;;;;;14.95;3.10;;;;;;;;;;5069247;28;20017;-59
2022/06/19 12:15:32;;;;;;;15.45;2.72;;;;;;;;;;5066977;28;20122;-60
2022/06/19 12:18:00;;;;;;;13.38;3.33;;;;;;;;;;5070473;28;20028;-60
2022/06/19 12:20:30;;;;;;;16.40;3.17;;;;;;;;;;5071231;28;20060;-60
2022/06/19 12:23:04;;;;;;;13.38;2.83;;;;;;;;;;5073850;28;20498;-60
2022/06/19 12:25:33;;;;;;;13.48;3.08;;;;;;;;;;5078296;28;20024;-60
2022/06/19 12:28:05;;;;;;;10.70;2.85;;;;;;;;;;5069435;28;20024;-60
2022/06/19 12:30:34;;;;;;;11.60;2.67;;;;;;;;;;5066399;28;20051;-60
2022/06/19 12:33:01;;;;;;;12.13;2.90;;;;;;;;;;5069225;28;20840;-60
2022/06/19 12:35:35;;;;;;;26.83;3.60;;;;;;;;;;5073377;28;20040;-59
2022/06/19 12:38:03;;;;;;;12.52;3.20;;;;;;;;;;5067187;28;20051;-60
2022/06/19 12:40:38;;;;;;;8.90;2.92;;;;;;;;;;5065859;28;20040;-60
2022/06/19 12:43:15;;;;;;;12.70;3.58;;;;;;;;;;5056641;28;20037;-60
2022/06/19 12:45:43;;;;;;;15.82;3.40;;;;;;;;;;5076803;28;20504;-60
2022/06/19 12:48:22;;;;;;;19.00;3.55;;;;;;;;;;5070029;28;20070;-60
2022/06/19 12:51:08;;;;;;;24.30;3.08;;;;;;;;;;5076989;28;20501;-60
2022/06/19 12:53:47;;;;;;;13.23;3.47;;;;;;;;;;5058511;28;20016;-60
2022/06/19 12:56:25;;;;;;;15.77;2.97;;;;;;;;;;5072706;28;20050;-60
2022/06/19 12:59:10;;;;;;;8.63;2.72;;;;;;;;;;5070195;28;20527;-59
2022/06/19 13:01:42;;;;;;;15.50;3.13;;;;;;;;;;5058461;28;20032;-60
2022/06/19 13:04:17;;;;;;;15.97;3.57;;;;;;;;;;5059211;28;20522;-60
2022/06/19 13:06:43;;;;;;;11.70;2.78;;;;;;;;;;5069648;28;20035;-60
2022/06/19 13:09:24;;;;;;;13.20;2.80;;;;;;;;;;5050214;28;20021;-60
2022/06/19 13:12:08;;;;;;;11.73;2.58;;;;;;;;;;5068836;28;20098;-60
2022/06/19 13:14:49;;;;;;;19.80;3.03;;;;;;;;;;5074823;28;20037;-59
2022/06/19 13:17:35;;;;;;;12.25;3.17;;;;;;;;;;5070175;28;20021;-60
2022/06/19 13:20:03;;;;;;;8.88;3.03;;;;;;;;;;5078602;28;20065;-60
2022/06/19 13:22:45;;;;;;;10.63;2.38;;;;;;;;;;5070015;28;20024;-60
2022/06/19 13:25:18;;;;;;;13.10;2.40;;;;;;;;;;5069114;28;20029;-59
2022/06/19 13:27:44;;;;;;;19.77;3.03;;;;;;;;;;5074564;28;20078;-61
2022/06/19 13:30:21;;;;;;;13.60;2.60;;;;;;;;;;5071696;28;20028;-61
2022/06/19 13:32:59;;;;;;;9.20;2.83;;;;;;;;;;5073590;28;20483;-60
2022/06/19 13:35:37;;;;;;;16.95;2.40;;;;;;;;;;5064487;28;20033;-60
2022/06/19 13:38:09;;;;;;;13.23;3.00;;;;;;;;;;5073553;28;20024;-59
2022/06/19 13:40:37;;;;;;;12.63;2.93;;;;;;;;;;5072959;28;20020;-59
2022/06/19 13:43:03;;;;;;;12.60;2.53;;;;;;;;;;5068458;28;20299;-60
2022/06/19 13:45:48;;;;;;;17.90;3.35;;;;;;;;;;5079286;28;20046;-60
2022/06/19 13:48:17;;;;;;;13.70;2.60;;;;;;;;;;5070386;28;20089;-61
2022/06/19 13:50:47;;;;;;;10.63;2.28;;;;;;;;;;5071136;28;20019;-61
2022/06/19 13:53:32;;;;;;;12.35;2.40;;;;;;;;;;5076252;28;20506;-61
2022/06/19 13:56:02;;;;;;;18.27;2.45;;;;;;;;;;5071800;28;20261;-61
2022/06/19 13:58:35;;;;;;;9.63;2.28;;;;;;;;;;5073355;28;20385;-60
2022/06/19 14:01:19;;;;;;;14.95;2.35;;;;;;;;;;5074446;28;20033;-60
2022/06/19 14:06:33;;;;;;;12.95;2.47;;;;;;;;;;5076236;28;20035;-60
2022/06/19 14:09:11;;;;;;;10.32;2.25;;;;;;;;;;5075592;28;20504;-60
2022/06/19 14:14:25;;;;;;;9.25;2.33;;;;;;;;;;5069432;28;20039;-60
2022/06/19 14:17:04;;;;;;;12.95;2.67;;;;;;;;;;5069927;28;20025;-59
2022/06/19 14:19:44;;;;;;;8.57;2.65;;;;;;;;;;5070326;28;20029;-60
2022/06/19 14:22:22;;;;;;;13.32;2.42;;;;;;;;;;5063564;28;20028;-60
2022/06/19 14:25:07;;;;;;;10.73;2.72;;;;;;;;;;5075236;28;20032;-60
2022/06/19 14:27:45;;;;;;;9.27;2.28;;;;;;;;;;5071764;28;20032;-60
2022/06/19 14:30:13;;;;;;;7.63;2.65;;;;;;;;;;5074163;28;20032;-60
2022/06/19 14:32:48;;;;;;;8.60;1.88;;;;;;;;;;5070920;28;20040;-60
2022/06/19 14:35:19;;;;;;;6.65;2.75;;;;;;;;;;5070065;28;20358;-60
2022/06/19 14:37:47;;;;;;;11.88;2.83;;;;;;;;;;5077808;28;20031;-59
2022/06/19 14:40:19;;;;;;;9.13;2.30;;;;;;;;;;5072849;28;20374;-60
2022/06/19 14:42:51;;;;;;;8.03;2.40;;;;;;;;;;5078639;28;20115;-59
2022/06/19 14:45:19;;;;;;;8.82;2.63;;;;;;;;;;5071775;28;20033;-60
2022/06/19 14:48:04;;;;;;;12.35;2.72;;;;;;;;;;5073834;28;20060;-60
2022/06/19 14:50:57;;;;;;;5.65;2.13;;;;;;;;;;5073591;28;20024;-60
2022/06/19 14:53:31;;;;;;;8.53;2.37;;;;;;;;;;5067528;28;20070;-60
2022/06/19 14:56:12;;;;;;;9.60;2.97;;;;;;;;;;5084119;28;20059;-60
2022/06/19 14:58:43;;;;;;;15.23;2.63;;;;;;;;;;5066929;28;20036;-61
2022/06/19 15:01:18;;;;;;;9.60;2.95;;;;;;;;;;5068364;28;20029;-61
2022/06/19 15:04:00;;;;;;;9.32;3.00;;;;;;;;;;5070260;28;20040;-60
2022/06/19 15:06:46;;;;;;;12.77;2.70;;;;;;;;;;5073205;28;20021;-60
2022/06/19 15:09:21;;;;;;;9.45;3.25;;;;;;;;;;5070291;28;20032;-60
2022/06/19 15:11:48;;;;;;;9.23;2.70;;;;;;;;;;5068444;28;20024;-61
2022/06/19 15:14:19;;;;;;;11.73;2.95;;;;;;;;;;5070368;28;20111;-60
2022/06/19 15:16:57;;;;;;;8.52;2.78;;;;;;;;;;5072448;28;20060;-61